Time;durP1;ratioP1;P1;durP2;ratioP2;P2;SDS_P1;SDS_P2;PMS_P1;PMS_P2;Temp;Humidity;BMP_temperature;BMP_pressure;BME280_temperature;BME280_humidity;BME280_pressure;Samples;Min_cycle;Max_cycle;Signal;HPM_P1;HPM_P2
2022/07/04 00:00:38;;;;;;;;;;;;;;;24.68;64.80;99268.91;5031555;28;19920;-58
2022/07/04 00:03:05;;;;;;;;;;;;;;;24.34;66.05;99269.16;5033475;28;19948;-58
2022/07/04 00:05:30;;;;;;;;;;;;;;;24.43;64.68;99271.84;5032724;28;19928;-58
2022/07/04 00:07:55;;;;;;;;;;;;;;;24.20;65.92;99265.91;5034557;28;20012;-59
2022/07/04 00:10:21;;;;;;;;;;;;;;;24.33;66.93;99254.31;5036140;28;19921;-58
2022/07/04 00:12:46;;;;;;;;;;;;;;;24.06;67.19;99263.56;5037350;28;20357;-58
2022/07/04 00:15:12;;;;;;;;;;;;;;;23.89;68.18;99261.53;5034456;28;20003;-59
2022/07/04 00:17:37;;;;;;;;;;;;;;;23.87;67.35;99255.56;5037062;28;20029;-58
2022/07/04 00:20:03;;;;;;;;;;;;;;;24.03;67.02;99253.31;5036454;28;19924;-58
2022/07/04 00:22:28;;;;;;;;;;;;;;;23.99;67.33;99252.75;5037273;28;20074;-58
2022/07/04 00:24:53;;;;;;;;;;;;;;;24.00;65.81;99253.59;5035918;28;20374;-58
2022/07/04 00:27:19;;;;;;;;;;;;;;;24.38;64.82;99249.50;5036669;28;20801;-58
2022/07/04 00:29:44;;;;;;;;;;;;;;;24.40;64.78;99250.19;5035510;28;20688;-58
2022/07/04 00:32:09;;;;;;;;;;;;;;;23.83;66.93;99256.78;5035235;28;19974;-58
2022/07/04 00:34:34;;;;;;;;;;;;;;;23.88;67.85;99251.97;5036083;28;19929;-58
2022/07/04 00:37:00;;;;;;;;;;;;;;;23.98;67.78;99251.06;5036576;28;19917;-59
2022/07/04 00:39:25;;;;;;;;;;;;;;;23.68;71.26;99250.97;5035927;28;19921;-59
2022/07/04 00:41:50;;;;;;;;;;;;;;;24.15;68.98;99247.03;5034569;28;19971;-58
2022/07/04 00:44:15;;;;;;;;;;;;;;;24.08;68.35;99243.22;5035143;28;19978;-58
2022/07/04 00:46:41;;;;;;;;;;;;;;;24.02;68.13;99246.41;5035868;28;19928;-58
2022/07/04 00:49:07;;;;;;;;;;;;;;;23.94;68.42;99236.50;5035465;28;19936;-59
2022/07/04 00:51:32;;;;;;;;;;;;;;;24.03;69.93;99237.53;5035916;28;19921;-58
2022/07/04 00:53:57;;;;;;;;;;;;;;;24.13;68.65;99241.06;5037102;28;19924;-58
2022/07/04 00:56:23;;;;;;;;;;;;;;;24.13;68.29;99242.84;5035097;28;19931;-58
2022/07/04 00:58:48;;;;;;;;;;;;;;;24.06;69.62;99245.16;5034274;28;19920;-58
2022/07/04 01:01:14;;;;;;;;;;;;;;;24.04;70.15;99243.63;5036365;28;20702;-58
2022/07/04 01:03:39;;;;;;;;;;;;;;;24.12;69.75;99242.03;5036202;28;19955;-58
2022/07/04 01:06:04;;;;;;;;;;;;;;;24.01;70.41;99245.53;5036529;28;19925;-58
2022/07/04 01:08:29;;;;;;;;;;;;;;;23.82;71.73;99241.97;5035131;28;20289;-58
2022/07/04 01:10:55;;;;;;;;;;;;;;;23.92;71.23;99237.59;5035813;28;20411;-58
2022/07/04 01:13:20;;;;;;;;;;;;;;;23.60;73.34;99246.31;5035012;28;19920;-58
2022/07/04 01:15:46;;;;;;;;;;;;;;;23.64;73.39;99236.41;5034831;28;20580;-58
2022/07/04 01:18:11;;;;;;;;;;;;;;;23.54;74.65;99242.44;5034082;28;19921;-58
2022/07/04 01:20:37;;;;;;;;;;;;;;;23.35;76.44;99244.88;5035466;28;19959;-58
2022/07/04 01:23:02;;;;;;;;;;;;;;;23.02;77.75;99240.56;5036618;28;20692;-58
2022/07/04 01:25:28;;;;;;;;;;;;;;;22.86;79.82;99238.28;5035793;28;19920;-58
2022/07/04 01:27:53;;;;;;;;;;;;;;;22.67;80.79;99241.50;5035082;28;19925;-58
2022/07/04 01:30:18;;;;;;;;;;;;;;;22.41;82.81;99235.66;5034942;28;19927;-58
2022/07/04 01:32:43;;;;;;;;;;;;;;;22.72;81.68;99234.94;5036358;28;19960;-57
2022/07/04 01:35:10;;;;;;;;;;;;;;;22.93;79.96;99232.41;5035949;28;19944;-58
2022/07/04 01:37:35;;;;;;;;;;;;;;;22.98;78.67;99229.41;5027382;28;19925;-58
2022/07/04 01:40:01;;;;;;;;;;;;;;;23.30;77.32;99229.47;5035122;28;19917;-58
2022/07/04 01:42:26;;;;;;;;;;;;;;;22.82;79.02;99235.03;5034917;28;19920;-58
2022/07/04 01:44:51;;;;;;;;;;;;;;;23.04;78.09;99228.13;5035035;28;19920;-58
2022/07/04 01:47:16;;;;;;;;;;;;;;;23.22;78.51;99228.41;5036514;28;19920;-58
2022/07/04 01:49:42;;;;;;;;;;;;;;;23.19;77.46;99226.88;5034423;28;20709;-58
2022/07/04 01:52:07;;;;;;;;;;;;;;;23.02;78.40;99235.31;5035684;28;19951;-58
2022/07/04 01:54:32;;;;;;;;;;;;;;;23.20;77.02;99235.63;5036155;28;20011;-58
2022/07/04 01:56:57;;;;;;;;;;;;;;;23.15;77.33;99231.56;5035414;28;19963;-57
2022/07/04 02:01:29;;;;;;;;;;;;;;;23.00;76.18;99229.34;5034609;28;19955;-59
2022/07/04 02:02:08;;;;;;;;;;;;;;;22.91;78.72;99234.31;5034534;28;19927;-58
2022/07/04 02:04:33;;;;;;;;;;;;;;;22.33;83.13;99238.88;5035439;28;19920;-58
2022/07/04 02:06:59;;;;;;;;;;;;;;;22.54;82.61;99242.47;5034418;28;19920;-58
2022/07/04 02:09:24;;;;;;;;;;;;;;;22.76;80.58;99240.78;5034030;28;20063;-58
2022/07/04 02:14:34;;;;;;;;;;;;;;;22.88;79.53;99247.69;5031816;28;19928;-58
2022/07/04 02:16:59;;;;;;;;;;;;;;;23.02;79.31;99245.81;5034662;28;19921;-58
2022/07/04 02:19:24;;;;;;;;;;;;;;;23.03;78.35;99239.59;5033039;28;19979;-58
2022/07/04 02:21:50;;;;;;;;;;;;;;;22.98;78.21;99242.53;5033814;28;19928;-57
2022/07/04 02:24:15;;;;;;;;;;;;;;;22.64;80.93;99244.38;5033820;28;19979;-58
2022/07/04 02:26:40;;;;;;;;;;;;;;;22.44;81.97;99246.78;5033306;28;20012;-58
2022/07/04 02:29:06;;;;;;;;;;;;;;;22.46;82.08;99255.34;5032773;28;19978;-58
2022/07/04 02:31:31;;;;;;;;;;;;;;;22.48;82.77;99256.06;5033441;28;19917;-57
2022/07/04 02:33:56;;;;;;;;;;;;;;;22.49;81.90;99255.13;5033896;28;19923;-57
2022/07/04 02:36:21;;;;;;;;;;;;;;;22.44;81.90;99251.16;5033094;28;19920;-57
2022/07/04 02:38:47;;;;;;;;;;;;;;;22.45;80.55;99256.31;5033216;28;19920;-57
2022/07/04 02:41:12;;;;;;;;;;;;;;;22.24;82.77;99260.59;5032959;28;19920;-57
2022/07/04 02:43:37;;;;;;;;;;;;;;;22.51;82.16;99260.22;5032922;28;20573;-57
2022/07/04 02:46:03;;;;;;;;;;;;;;;22.53;81.22;99267.06;5033132;28;19924;-57
2022/07/04 02:48:28;;;;;;;;;;;;;;;22.45;81.67;99269.41;5032959;28;20386;-57
2022/07/04 02:50:53;;;;;;;;;;;;;;;22.28;83.09;99268.09;5032342;28;19921;-57
2022/07/04 02:53:18;;;;;;;;;;;;;;;22.37;81.42;99266.53;5033859;28;20354;-58
2022/07/04 02:55:43;;;;;;;;;;;;;;;22.51;81.35;99263.72;5032753;28;20701;-58
2022/07/04 02:58:09;;;;;;;;;;;;;;;22.43;82.56;99281.00;5032521;28;20014;-57
2022/07/04 03:00:34;;;;;;;;;;;;;;;22.57;81.46;99283.38;5031727;28;19925;-57
2022/07/04 03:02:59;;;;;;;;;;;;;;;22.76;79.45;99282.78;5032969;28;20827;-57
2022/07/04 03:05:24;;;;;;;;;;;;;;;22.36;82.71;99285.88;5032948;28;20300;-57
2022/07/04 03:07:50;;;;;;;;;;;;;;;22.64;79.70;99284.56;5032522;28;20485;-58
2022/07/04 03:10:15;;;;;;;;;;;;;;;22.50;81.24;99293.53;5032099;28;19932;-57
2022/07/04 03:12:40;;;;;;;;;;;;;;;22.61;80.03;99284.00;5032405;28;20842;-57
2022/07/04 03:15:05;;;;;;;;;;;;;;;22.21;83.77;99287.00;5032825;28;20400;-57
2022/07/04 03:17:31;;;;;;;;;;;;;;;22.34;83.43;99290.41;5031702;28;20282;-57
2022/07/04 03:19:56;;;;;;;;;;;;;;;22.21;83.61;99297.50;5032058;28;20374;-57
2022/07/04 03:22:22;;;;;;;;;;;;;;;22.09;84.85;99307.97;5030560;28;19921;-57
2022/07/04 03:24:47;;;;;;;;;;;;;;;21.70;86.96;99307.34;5032537;28;19927;-57
2022/07/04 03:27:12;;;;;;;;;;;;;;;21.96;85.19;99315.06;5031697;28;19924;-57
2022/07/04 03:29:37;;;;;;;;;;;;;;;21.98;83.43;99315.78;5030872;28;19925;-58
2022/07/04 03:32:03;;;;;;;;;;;;;;;21.22;88.50;99320.38;5031293;28;19987;-57
2022/07/04 03:34:28;;;;;;;;;;;;;;;21.89;85.86;99313.84;5032121;28;19920;-57
2022/07/04 03:36:53;;;;;;;;;;;;;;;21.54;86.30;99319.88;5029615;28;19987;-57
2022/07/04 03:39:18;;;;;;;;;;;;;;;21.72;85.85;99312.47;5030878;28;19924;-57
2022/07/04 03:41:44;;;;;;;;;;;;;;;22.03;85.00;99304.94;5031072;28;19924;-57
2022/07/04 03:44:09;;;;;;;;;;;;;;;21.61;84.17;99318.50;5034443;28;19927;-58
2022/07/04 03:46:34;;;;;;;;;;;;;;;21.66;87.64;99326.03;5035194;28;20416;-57
2022/07/04 03:48:59;;;;;;;;;;;;;;;22.03;85.91;99321.56;5035790;28;19983;-57
2022/07/04 03:51:25;;;;;;;;;;;;;;;21.84;86.19;99323.84;5036091;28;20025;-57
2022/07/04 03:53:50;;;;;;;;;;;;;;;21.88;87.41;99323.50;5035496;28;20183;-57
2022/07/04 03:56:15;;;;;;;;;;;;;;;22.35;84.16;99326.16;5036672;28;19924;-57
2022/07/04 03:58:48;;;;;;;;;;;;;;;21.89;87.05;99334.81;5036174;28;19923;-58
2022/07/04 04:01:13;;;;;;;;;;;;;;;22.16;85.75;99324.06;5033787;28;20409;-57
2022/07/04 04:06:22;;;;;;;;;;;;;;;21.99;85.94;99332.38;5036480;28;19924;-57
2022/07/04 04:08:47;;;;;;;;;;;;;;;21.85;87.37;99338.63;5035465;28;19936;-57
2022/07/04 04:11:12;;;;;;;;;;;;;;;21.49;89.22;99348.22;5035528;28;20956;-57
2022/07/04 04:13:37;;;;;;;;;;;;;;;21.63;89.59;99355.09;5035205;28;20806;-57
2022/07/04 04:16:03;;;;;;;;;;;;;;;21.80;87.93;99351.22;5035941;28;20035;-57
2022/07/04 04:18:28;;;;;;;;;;;;;;;21.85;88.70;99351.72;5035131;28;20411;-57
2022/07/04 04:20:53;;;;;;;;;;;;;;;21.68;88.93;99358.22;5035021;28;20508;-57
2022/07/04 04:23:20;;;;;;;;;;;;;;;21.94;87.66;99358.94;5035449;28;20356;-57
2022/07/04 04:25:45;;;;;;;;;;;;;;;21.68;87.93;99361.66;5035380;28;19925;-57
2022/07/04 04:28:10;;;;;;;;;;;;;;;21.92;87.39;99366.09;5035095;28;19931;-57
2022/07/04 04:30:35;;;;;;;;;;;;;;;21.35;89.86;99371.88;5034546;28;19917;-57
2022/07/04 04:33:01;;;;;;;;;;;;;;;21.50;91.75;99370.84;5035279;28;19927;-57
2022/07/04 04:35:26;;;;;;;;;;;;;;;22.16;88.82;99357.34;5034705;28;19916;-57
2022/07/04 04:37:51;;;;;;;;;;;;;;;22.50;85.97;99361.75;5034987;28;19985;-57
2022/07/04 04:40:17;;;;;;;;;;;;;;;22.79;87.24;99361.34;5034246;28;20023;-57
2022/07/04 04:42:42;;;;;;;;;;;;;;;22.91;86.95;99355.13;5035706;28;19921;-57
2022/07/04 04:45:08;;;;;;;;;;;;;;;22.91;86.95;99360.38;5034637;28;19916;-57
2022/07/04 04:47:33;;;;;;;;;;;;;;;23.15;86.26;99356.84;5035059;28;19991;-57
2022/07/04 04:49:58;;;;;;;;;;;;;;;23.15;86.56;99356.84;5034752;28;19959;-57
2022/07/04 04:52:23;;;;;;;;;;;;;;;23.45;85.88;99358.84;5034811;28;20621;-57
2022/07/04 04:54:49;;;;;;;;;;;;;;;23.43;86.85;99363.38;5034236;28;19982;-57
2022/07/04 04:57:14;;;;;;;;;;;;;;;23.49;85.53;99354.16;5035307;28;19928;-57
2022/07/04 04:59:39;;;;;;;;;;;;;;;23.61;84.81;99363.69;5034036;28;19916;-57
2022/07/04 05:02:04;;;;;;;;;;;;;;;24.00;84.18;99353.56;5034773;28;19925;-57
2022/07/04 05:04:30;;;;;;;;;;;;;;;23.72;83.59;99361.03;5035234;28;20649;-58
2022/07/04 05:06:56;;;;;;;;;;;;;;;23.65;84.47;99359.00;5034859;28;19924;-57
2022/07/04 05:09:21;;;;;;;;;;;;;;;22.82;88.78;99378.66;5034432;28;19928;-58
2022/07/04 05:11:47;;;;;;;;;;;;;;;23.87;85.50;99369.50;5034698;28;20027;-57
2022/07/04 05:14:12;;;;;;;;;;;;;;;22.84;90.42;99374.94;5033619;28;19932;-57
2022/07/04 05:16:37;;;;;;;;;;;;;;;22.76;90.13;99377.31;5033915;28;19978;-57
2022/07/04 05:19:02;;;;;;;;;;;;;;;23.15;87.03;99369.97;5033751;28;20035;-57
2022/07/04 05:21:28;;;;;;;;;;;;;;;23.08;89.46;99367.00;5033567;28;20392;-58
2022/07/04 05:23:54;;;;;;;;;;;;;;;23.48;88.82;99376.16;5034307;28;20274;-58
2022/07/04 05:26:19;;;;;;;;;;;;;;;23.65;83.73;99367.75;5035134;28;19963;-57
2022/07/04 05:28:44;;;;;;;;;;;;;;;24.18;84.25;99361.72;5034714;28;19929;-58
2022/07/04 05:31:10;;;;;;;;;;;;;;;23.32;88.55;99372.09;5034405;28;20366;-58
2022/07/04 05:33:35;;;;;;;;;;;;;;;23.76;89.12;99361.63;5034921;28;19923;-57
2022/07/04 05:36:00;;;;;;;;;;;;;;;23.79;87.48;99364.88;5016752;28;20020;-58
2022/07/04 05:38:25;;;;;;;;;;;;;;;24.07;85.20;99359.97;5034266;28;20789;-58
2022/07/04 05:40:50;;;;;;;;;;;;;;;24.35;81.25;99352.41;5034174;28;19920;-58
2022/07/04 05:43:16;;;;;;;;;;;;;;;24.38;86.28;99357.41;5035077;28;19955;-58
2022/07/04 05:45:41;;;;;;;;;;;;;;;24.72;85.21;99347.53;5034425;28;20327;-58
2022/07/04 05:48:06;;;;;;;;;;;;;;;23.94;85.14;99362.78;5033330;28;20012;-58
2022/07/04 05:50:32;;;;;;;;;;;;;;;24.41;86.27;99362.44;5033875;28;19964;-58
2022/07/04 05:52:57;;;;;;;;;;;;;;;24.11;87.99;99371.09;5033856;28;19932;-58
2022/07/04 05:55:22;;;;;;;;;;;;;;;23.62;88.51;99375.88;5033615;28;20628;-58
2022/07/04 05:57:47;;;;;;;;;;;;;;;24.41;87.50;99380.88;5033708;28;20012;-57
2022/07/04 06:00:13;;;;;;;;;;;;;;;24.81;84.56;99380.16;5031088;28;19921;-58
2022/07/04 06:02:38;;;;;;;;;;;;;;;25.37;83.00;99379.75;5034346;28;20020;-58
2022/07/04 06:05:04;;;;;;;;;;;;;;;25.69;83.37;99383.97;5032951;28;19960;-58
2022/07/04 06:07:29;;;;;;;;;;;;;;;26.08;81.88;99384.88;5033220;28;20385;-58
2022/07/04 06:09:54;;;;;;;;;;;;;;;24.89;82.49;99388.25;5032920;28;19928;-58
2022/07/04 06:12:19;;;;;;;;;;;;;;;24.36;89.98;99402.31;5033657;28;20780;-58
2022/07/04 06:14:45;;;;;;;;;;;;;;;25.19;84.30;99383.97;5034184;28;20302;-58
2022/07/04 06:17:11;;;;;;;;;;;;;;;24.36;90.49;99390.97;5033335;28;19917;-58
2022/07/04 06:19:36;;;;;;;;;;;;;;;24.71;87.41;99384.56;5031851;28;20019;-58
2022/07/04 06:22:02;;;;;;;;;;;;;;;24.94;86.53;99388.69;5032191;28;19921;-58
2022/07/04 06:24:27;;;;;;;;;;;;;;;25.37;84.95;99386.81;5034345;28;19963;-58
2022/07/04 06:26:52;;;;;;;;;;;;;;;25.61;84.84;99391.72;5032049;28;19921;-58
2022/07/04 06:29:17;;;;;;;;;;;;;;;25.59;86.03;99406.84;5033692;28;19921;-58
2022/07/04 06:31:43;;;;;;;;;;;;;;;25.39;89.00;99396.25;5033350;28;19916;-58
2022/07/04 06:36:52;;;;;;;;;;;;;;;24.40;91.83;99406.38;5032880;28;19931;-59
2022/07/04 06:39:17;;;;;;;;;;;;;;;24.27;93.62;99400.44;5033379;28;19917;-58
2022/07/04 06:41:42;;;;;;;;;;;;;;;25.90;86.55;99391.81;5034057;28;19916;-58
2022/07/04 06:44:07;;;;;;;;;;;;;;;24.43;95.98;99403.47;5032953;28;20004;-58
2022/07/04 06:46:33;;;;;;;;;;;;;;;24.63;94.09;99393.94;5033411;28;19924;-58
2022/07/04 06:48:58;;;;;;;;;;;;;;;24.50;91.38;99388.03;5032714;28;19927;-58
2022/07/04 06:51:23;;;;;;;;;;;;;;;26.37;83.23;99368.19;5033578;28;19917;-58
2022/07/04 06:53:48;;;;;;;;;;;;;;;24.52;82.48;99385.25;5031786;28;20066;-58
2022/07/04 06:56:14;;;;;;;;;;;;;;;24.32;92.44;99382.47;5032057;28;19993;-58
2022/07/04 06:58:39;;;;;;;;;;;;;;;25.49;89.98;99369.09;5033291;28;19929;-58
2022/07/04 07:01:04;;;;;;;;;;;;;;;25.41;89.77;99378.50;5031903;28;19929;-59
2022/07/04 07:03:30;;;;;;;;;;;;;;;24.41;92.61;99383.50;5030788;28;19963;-58
2022/07/04 07:05:56;;;;;;;;;;;;;;;24.74;90.96;99373.75;5033098;28;19924;-58
2022/07/04 07:08:21;;;;;;;;;;;;;;;26.17;81.68;99364.72;5032092;28;19921;-58
2022/07/04 07:10:46;;;;;;;;;;;;;;;25.88;78.05;99376.09;5032380;28;19928;-58
2022/07/04 07:13:12;;;;;;;;;;;;;;;24.78;87.56;99378.63;5033031;28;20348;-58
2022/07/04 07:15:37;;;;;;;;;;;;;;;25.03;82.40;99374.72;5032188;28;19917;-58
2022/07/04 07:18:03;;;;;;;;;;;;;;;25.91;79.48;99369.75;5036435;28;20409;-58
2022/07/04 07:20:28;;;;;;;;;;;;;;;26.62;74.47;99358.03;5035869;28;19916;-58
2022/07/04 07:22:53;;;;;;;;;;;;;;;26.59;75.29;99359.13;5035624;28;19967;-58
2022/07/04 07:25:18;;;;;;;;;;;;;;;25.73;76.17;99366.91;5036292;28;19959;-58
2022/07/04 07:27:44;;;;;;;;;;;;;;;24.94;81.29;99370.25;5036171;28;19987;-58
2022/07/04 07:30:09;;;;;;;;;;;;;;;24.79;82.17;99363.66;5036110;28;19917;-58
2022/07/04 07:32:34;;;;;;;;;;;;;;;26.43;75.22;99349.09;5036686;28;19925;-58
2022/07/04 07:35:00;;;;;;;;;;;;;;;26.76;68.11;99359.38;5035213;28;19920;-58
2022/07/04 07:37:26;;;;;;;;;;;;;;;27.18;64.55;99353.63;5036435;28;19928;-59
2022/07/04 07:39:51;;;;;;;;;;;;;;;25.79;65.17;99371.63;5035903;28;20404;-58
2022/07/04 07:42:16;;;;;;;;;;;;;;;27.13;67.21;99357.53;5036364;28;19997;-58
2022/07/04 07:44:42;;;;;;;;;;;;;;;27.04;58.66;99358.41;5035906;28;20697;-58
2022/07/04 07:47:07;;;;;;;;;;;;;;;26.57;61.50;99361.09;5036304;28;19962;-58
2022/07/04 07:49:32;;;;;;;;;;;;;;;27.43;61.01;99352.94;5035795;28;19987;-59
2022/07/04 07:51:57;;;;;;;;;;;;;;;26.39;65.55;99360.09;5036697;28;19998;-59
2022/07/04 07:54:23;;;;;;;;;;;;;;;27.75;57.54;99348.97;5036278;28;19920;-58
2022/07/04 07:56:48;;;;;;;;;;;;;;;27.21;57.27;99353.34;5035187;28;20544;-59
2022/07/04 07:59:13;;;;;;;;;;;;;;;26.57;63.28;99357.59;5034437;28;19970;-59
2022/07/04 08:01:38;;;;;;;;;;;;;;;27.26;56.95;99345.84;5035818;28;19921;-59
2022/07/04 08:06:48;;;;;;;;;;;;;;;28.42;54.78;99348.56;5034504;28;20489;-59
2022/07/04 08:09:14;;;;;;;;;;;;;;;27.77;54.58;99354.97;5034816;28;19928;-59
2022/07/04 08:11:40;;;;;;;;;;;;;;;26.26;56.29;99358.59;5036081;28;19917;-59
2022/07/04 08:14:07;;;;;;;;;;;;;;;24.95;57.55;99361.41;5035834;28;19921;-59
2022/07/04 08:16:32;;;;;;;;;;;;;;;26.81;58.69;99344.75;5036394;28;19921;-59
2022/07/04 08:18:57;;;;;;;;;;;;;;;27.38;49.54;99349.94;5034044;28;19920;-59
2022/07/04 08:21:23;;;;;;;;;;;;;;;26.21;59.55;99360.84;5035283;28;19992;-59
2022/07/04 08:23:48;;;;;;;;;;;;;;;25.05;62.78;99366.69;5035332;28;19928;-59
2022/07/04 08:26:13;;;;;;;;;;;;;;;26.77;60.57;99358.38;5035317;28;19924;-59
2022/07/04 08:28:38;;;;;;;;;;;;;;;27.44;52.75;99359.94;5034775;28;20306;-59
2022/07/04 08:31:04;;;;;;;;;;;;;;;26.41;58.22;99360.78;5035086;28;20420;-59
2022/07/04 08:33:29;;;;;;;;;;;;;;;28.32;53.38;99344.19;5033329;28;20275;-59
2022/07/04 08:35:54;;;;;;;;;;;;;;;26.73;56.32;99354.34;5033802;28;19925;-59
2022/07/04 08:38:20;;;;;;;;;;;;;;;26.03;58.70;99360.69;5034816;28;19920;-58
2022/07/04 08:40:47;;;;;;;;;;;;;;;26.42;57.32;99346.63;5034944;28;19921;-59
2022/07/04 08:43:13;;;;;;;;;;;;;;;28.04;51.91;99353.25;5035537;28;20278;-59
2022/07/04 08:45:38;;;;;;;;;;;;;;;26.40;56.10;99354.69;5035081;28;19920;-58
2022/07/04 08:48:06;;;;;;;;;;;;;;;26.68;61.54;99358.25;5033849;28;19978;-59
2022/07/04 08:50:32;;;;;;;;;;;;;;;27.05;55.64;99348.66;5035236;28;19924;-59
2022/07/04 08:53:00;;;;;;;;;;;;;;;28.21;54.99;99351.56;5035236;28;19917;-59
2022/07/04 09:00:53;;;;;;;;;;;;;;;28.14;51.78;99353.97;5034461;28;20285;-59
2022/07/04 09:03:19;;;;;;;;;;;;;;;27.10;50.04;99357.84;5034139;28;20022;-59
2022/07/04 09:05:45;;;;;;;;;;;;;;;27.97;50.97;99354.84;5034294;28;19925;-58
2022/07/04 09:08:10;;;;;;;;;;;;;;;28.88;44.88;99349.22;5034699;28;20400;-59
2022/07/04 09:10:35;;;;;;;;;;;;;;;28.68;43.14;99353.91;5033654;28;19920;-59
2022/07/04 09:13:02;;;;;;;;;;;;;;;29.51;43.44;99359.41;5033611;28;19917;-59
2022/07/04 09:15:28;;;;;;;;;;;;;;;28.56;46.97;99356.00;5035062;28;20325;-59
2022/07/04 09:17:53;;;;;;;;;;;;;;;29.33;45.54;99356.88;5035101;28;19920;-59
2022/07/04 09:20:22;;;;;;;;;;;;;;;28.11;50.52;99362.25;5033852;28;19920;-59
2022/07/04 09:22:48;;;;;;;;;;;;;;;29.31;49.03;99360.66;5033155;28;20443;-59
2022/07/04 09:25:14;;;;;;;;;;;;;;;28.66;50.28;99350.56;5035178;28;20407;-60
2022/07/04 09:27:41;;;;;;;;;;;;;;;30.87;46.25;99347.50;5033481;28;19927;-59
2022/07/04 09:30:07;;;;;;;;;;;;;;;27.91;47.09;99359.75;5034193;28;19921;-59
2022/07/04 09:32:39;;;;;;;;;;;;;;;26.45;55.39;99359.53;5034372;28;19913;-60
2022/07/04 09:35:05;;;;;;;;;;;;;;;28.21;50.19;99346.25;5034653;28;20018;-59
2022/07/04 09:37:47;;;;;;;;;;;;;;;29.42;46.80;99347.09;5033986;28;19920;-60
2022/07/04 09:40:32;;;;;;;;;;;;;;;30.04;43.14;99346.75;5032518;28;21215;-60
2022/07/04 09:42:58;;;;;;;;;;;;;;;30.80;43.43;99342.81;5020509;28;19928;-60
2022/07/04 09:45:24;;;;;;;;;;;;;;;29.99;40.18;99349.91;5033629;28;19921;-60
2022/07/04 09:47:50;;;;;;;;;;;;;;;26.50;48.67;99359.94;5033559;28;20268;-60
2022/07/04 09:50:18;;;;;;;;;;;;;;;28.46;49.86;99347.25;5033361;28;19925;-60
2022/07/04 09:52:56;;;;;;;;;;;;;;;29.42;43.02;99348.94;5034104;28;19948;-59
2022/07/04 09:55:27;;;;;;;;;;;;;;;30.32;38.67;99336.63;5034125;28;19917;-59
2022/07/04 09:57:53;;;;;;;;;;;;;;;29.40;43.35;99339.31;5033733;28;19917;-60
2022/07/04 10:00:26;;;;;;;;;;;;;;;29.53;42.44;99345.97;5071100;27;19928;-60
2022/07/04 10:02:52;;;;;;;;;;;;;;;28.71;44.00;99346.44;5068985;28;20010;-60
2022/07/04 10:05:27;;;;;;;;;;;;;;;29.89;43.55;99338.59;5065233;28;20697;-60
2022/07/04 10:07:56;;;;;;;;;;;;;;;29.42;42.11;99347.09;5066150;28;19920;-60
2022/07/04 10:10:44;;;;;;;;;;;;;;;30.47;38.34;99327.94;5066727;28;20413;-61
2022/07/04 10:13:10;;;;;;;;;;;;;;;31.65;40.67;99336.81;5069993;28;19989;-60
2022/07/04 10:15:37;;;;;;;;;;;;;;;32.07;37.79;99340.03;5064767;28;19964;-60
2022/07/04 10:18:03;;;;;;;;;;;;;;;33.43;35.47;99327.38;5066807;28;20522;-60
2022/07/04 10:20:29;;;;;;;;;;;;;;;31.59;35.72;99337.53;5067808;28;19924;-60
2022/07/04 10:22:54;;;;;;;;;;;;;;;31.05;37.13;99332.97;5065620;28;19974;-60
2022/07/04 10:25:19;;;;;;;;;;;;;;;30.35;39.30;99333.63;5066822;28;19931;-61
2022/07/04 10:27:45;;;;;;;;;;;;;;;29.71;40.16;99333.44;5069603;28;20605;-61
2022/07/04 10:30:14;;;;;;;;;;;;;;;29.56;41.00;99333.22;5067819;28;19916;-60
2022/07/04 10:32:39;;;;;;;;;;;;;;;30.24;39.26;99320.66;5066891;28;20001;-60
2022/07/04 10:35:04;;;;;;;;;;;;;;;29.99;40.41;99331.31;5070601;28;20086;-60
2022/07/04 10:37:48;;;;;;;;;;;;;;;28.07;40.15;99334.41;5069584;28;19959;-60
2022/07/04 10:40:33;;;;;;;;;;;;;;;28.51;43.67;99321.16;5068635;28;20428;-60
2022/07/04 10:42:58;;;;;;;;;;;;;;;30.10;39.15;99316.03;5066536;28;19920;-60
2022/07/04 10:45:33;;;;;;;;;;;;;;;33.12;36.51;99307.94;5069647;28;19916;-61
2022/07/04 10:47:58;;;;;;;;;;;;;;;30.32;38.65;99312.72;5067865;28;19920;-60
2022/07/04 10:50:27;;;;;;;;;;;;;;;30.39;40.02;99308.38;5062306;28;19928;-60
2022/07/04 10:53:09;;;;;;;;;;;;;;;31.94;37.58;99302.47;5066200;28;19974;-61
2022/07/04 10:55:34;;;;;;;;;;;;;;;31.15;37.42;99300.81;5067561;28;19988;-60
2022/07/04 10:57:59;;;;;;;;;;;;;;;30.15;39.16;99305.72;5065799;28;19921;-60
2022/07/04 11:00:24;;;;;;;;;;;;;;;31.08;38.64;99304.34;5068145;28;19916;-61
2022/07/04 11:02:50;;;;;;;;;;;;;;;29.64;38.21;99313.00;5066997;28;19917;-61
2022/07/04 11:05:15;;;;;;;;;;;;;;;29.43;40.31;99308.97;5067199;28;19924;-60
2022/07/04 11:07:40;;;;;;;;;;;;;;;30.28;38.38;99294.63;5065290;28;19924;-60
2022/07/04 11:12:59;;;;;;;;;;;;;;;29.64;39.49;99313.00;5055446;28;19931;-60
2022/07/04 11:15:24;;;;;;;;;;;;;;;32.69;34.76;99289.09;5052901;28;20385;-61
2022/07/04 11:17:51;;;;;;;;;;;;;;;30.13;37.11;99299.75;5055077;28;19926;-60
2022/07/04 11:20:16;;;;;;;;;;;;;;;29.55;39.32;99298.88;5052816;28;19924;-61
2022/07/04 11:22:42;;;;;;;;;;;;;;;31.88;35.93;99288.84;5053588;28;19920;-61
2022/07/04 11:25:07;;;;;;;;;;;;;;;30.71;36.83;99295.16;5053676;28;20359;-61
2022/07/04 11:27:32;;;;;;;;;;;;;;;31.41;36.26;99297.06;5054588;28;19916;-61
2022/07/04 11:29:58;;;;;;;;;;;;;;;30.70;37.16;99298.81;5052286;28;19942;-61
2022/07/04 11:32:29;;;;;;;;;;;;;;;33.05;36.24;99288.34;5054375;28;19921;-61
2022/07/04 11:34:55;;;;;;;;;;;;;;;29.75;35.46;99296.78;5052928;28;19948;-61
2022/07/04 11:37:20;;;;;;;;;;;;;;;28.53;39.27;99298.00;5053855;28;20801;-61
2022/07/04 11:39:49;;;;;;;;;;;;;;;30.53;37.75;99292.72;5051066;28;20791;-61
2022/07/04 11:45:05;;;;;;;;;;;;;;;28.94;39.90;99290.22;5054164;28;19970;-61
2022/07/04 11:47:40;;;;;;;;;;;;;;;29.05;40.42;99287.28;5052373;28;19920;-61
2022/07/04 11:50:09;;;;;;;;;;;;;;;31.23;37.02;99278.66;5054560;28;19931;-61
2022/07/04 11:52:37;;;;;;;;;;;;;;;30.06;39.62;99281.00;5053016;28;19922;-61
2022/07/04 11:55:03;;;;;;;;;;;;;;;29.61;39.46;99285.78;5054084;28;20459;-61
2022/07/04 11:57:30;;;;;;;;;;;;;;;30.74;39.54;99282.34;5054345;28;20014;-61
2022/07/04 11:59:58;;;;;;;;;;;;;;;31.08;38.21;99275.91;5053936;28;20458;-61
2022/07/04 12:02:24;;;;;;;;;;;;;;;29.87;38.29;99284.00;5054146;28;20569;-61
2022/07/04 12:04:49;;;;;;;;;;;;;;;30.40;37.25;99272.84;5053102;28;19927;-61
2022/07/04 12:07:17;;;;;;;;;;;;;;;31.22;35.10;99269.84;5052751;28;19977;-61
2022/07/04 12:09:43;;;;;;;;;;;;;;;31.81;34.41;99271.94;5053169;28;19924;-61
2022/07/04 12:12:08;;;;;;;;;;;;;;;31.89;35.04;99274.53;5054823;28;19928;-61
2022/07/04 12:14:34;;;;;;;;;;;;;;;32.42;32.45;99263.06;5052364;28;19924;-61
2022/07/04 12:17:12;;;;;;;;;;;;;;;32.89;32.36;99270.69;5053721;28;20023;-62
2022/07/04 12:19:38;;;;;;;;;;;;;;;33.26;33.56;99274.22;5052311;28;20566;-61
2022/07/04 12:22:03;;;;;;;;;;;;;;;30.70;36.38;99278.41;5054162;28;19920;-61
2022/07/04 12:24:38;;;;;;;;;;;;;;;29.50;37.73;99275.50;5052045;28;20070;-61
2022/07/04 12:27:03;;;;;;;;;;;;;;;32.41;35.60;99262.25;5053564;28;19932;-61
2022/07/04 12:29:28;;;;;;;;;;;;;;;32.11;32.43;99252.56;5052457;28;20321;-61
2022/07/04 12:31:54;;;;;;;;;;;;;;;32.90;32.72;99256.31;5053024;28;20015;-61
2022/07/04 12:34:19;;;;;;;;;;;;;;;31.75;35.05;99256.69;5053515;28;19931;-62
2022/07/04 12:36:48;;;;;;;;;;;;;;;30.42;36.64;99254.06;5053857;28;19920;-61
2022/07/04 12:39:25;;;;;;;;;;;;;;;31.21;35.51;99259.38;5052936;28;20000;-61
2022/07/04 12:41:51;;;;;;;;;;;;;;;32.60;34.17;99254.72;5049417;28;19978;-62
2022/07/04 12:44:20;;;;;;;;;;;;;;;31.79;34.22;99257.16;5050824;28;19917;-61
2022/07/04 12:46:45;;;;;;;;;;;;;;;30.31;36.74;99252.63;5051116;28;19942;-61
2022/07/04 12:49:13;;;;;;;;;;;;;;;31.72;35.23;99257.03;5050713;28;19921;-61
2022/07/04 12:51:38;;;;;;;;;;;;;;;30.01;36.13;99264.72;5050986;28;19924;-61
2022/07/04 12:54:07;;;;;;;;;;;;;;;31.62;35.61;99249.31;5051236;28;19966;-61
2022/07/04 12:56:40;;;;;;;;;;;;;;;30.63;35.20;99258.78;5053107;28;19920;-61
2022/07/04 12:59:06;;;;;;;;;;;;;;;31.53;34.01;99247.72;5047965;28;19928;-62
2022/07/04 13:01:31;;;;;;;;;;;;;;;31.05;35.16;99249.66;5051767;28;19943;-61
2022/07/04 13:03:57;;;;;;;;;;;;;;;32.46;33.80;99243.84;5052380;28;19916;-60